Temp: 18.3°C   Baro: 1015.8mb
  Wind: 0.9mph   Dir: SW (231°)
  Rain: 0.6mm (0.0mm/hr)
  Solar: 605W/m2  Hum: 66%
 
Bath Spa Weather Station Historical Data
Daily Summary for August 01, 2020 Units:  Both    English   Metric
Daily Weekly Monthly Yearly Custom
  High: Low: Average:
Temperature: 69.6 °F /  20.9 °C 56.1 °F /  13.4 °C 62.7 °F /  17.1 °C
Dew Point: 59.3 °F /  15.2 °C 49 °F /  9.4 °C 55.8 °F /  13.2 °C
Humidity: 90% 63.8% 79%
Wind Speed: 12.6mph /  20.3km/h - 4.9mph /  7.9km/h
Wind Gust: 21mph /  33.8km/h - -
Wind- - WNW
Pressure: 30.05 in /  1017.5 hPa 29.92 in /  1013.1 hPa -
Precipitation: 0.02 in /  0.51 mm    
Historical Graphs
 
 
Tabular Data for August 01, 2020
Time Temperature Dew Point Pressure Wind Wind Speed Wind Gust Humidity Rainfall Rate (Hourly) solar
00:04 61.5 °F /  16.4 °C 57 °F /  13.9 °C 29.92in /  1013.1hPa West 2.7mph /  4.3km/h 6mph /  9.7km/h 85% 0.00in /  0mm 0 W/m2
00:09 61.4 °F /  16.3 °C 57 °F /  13.9 °C 29.92in /  1013.1hPa West 3.7mph /  6km/h 9mph /  14.5km/h 85.4% 0.00in /  0mm 0 W/m2
00:14 61.3 °F /  16.3 °C 57.2 °F /  14 °C 29.92in /  1013.1hPa West 3.6mph /  5.8km/h 7mph /  11.3km/h 86% 0.00in /  0mm 0 W/m2
00:19 61.2 °F /  16.2 °C 57 °F /  13.9 °C 29.92in /  1013.1hPa West 4.3mph /  6.9km/h 8mph /  12.9km/h 86% 0.00in /  0mm 0 W/m2
00:23 61.2 °F /  16.2 °C 57 °F /  13.9 °C 29.93in /  1013.4hPa WNW 3.7mph /  6km/h 8mph /  12.9km/h 86% 0.00in /  0mm 0 W/m2
00:29 61.2 °F /  16.2 °C 57 °F /  13.9 °C 29.93in /  1013.4hPa West 2.9mph /  4.7km/h 6mph /  9.7km/h 86% 0.00in /  0mm 0 W/m2
00:34 61.2 °F /  16.2 °C 57.1 °F /  13.9 °C 29.93in /  1013.4hPa West 3.6mph /  5.8km/h 6mph /  9.7km/h 86.6% 0.00in /  0mm 0 W/m2
00:39 61.2 °F /  16.2 °C 57.2 °F /  14 °C 29.93in /  1013.4hPa West 4.2mph /  6.8km/h 9mph /  14.5km/h 87% 0.00in /  0mm 0 W/m2
00:44 61 °F /  16.1 °C 57 °F /  13.9 °C 29.93in /  1013.4hPa WNW 3.9mph /  6.3km/h 9mph /  14.5km/h 87% 0.00in /  0mm 0 W/m2
00:49 61 °F /  16.1 °C 57 °F /  13.9 °C 29.93in /  1013.4hPa WNW 3.2mph /  5.1km/h 7mph /  11.3km/h 87% 0.00in /  0mm 0 W/m2
00:54 61 °F /  16.1 °C 57 °F /  13.9 °C 29.93in /  1013.4hPa WNW 2.9mph /  4.7km/h 6mph /  9.7km/h 87% 0.00in /  0mm 0 W/m2
00:59 61 °F /  16.1 °C 57.4 °F /  14.1 °C 29.93in /  1013.4hPa WNW 4.7mph /  7.6km/h 7mph /  11.3km/h 88% 0.00in /  0mm 0 W/m2
01:04 61 °F /  16.1 °C 57.4 °F /  14.1 °C 29.93in /  1013.4hPa WNW 3.8mph /  6.1km/h 7mph /  11.3km/h 88% 0.00in /  0mm 0 W/m2
01:09 61 °F /  16.1 °C 57.4 °F /  14.1 °C 29.94in /  1013.8hPa WNW 2.9mph /  4.7km/h 6mph /  9.7km/h 88% 0.00in /  0mm 0 W/m2
01:14 61 °F /  16.1 °C 57.4 °F /  14.1 °C 29.94in /  1013.8hPa West 4mph /  6.4km/h 8mph /  12.9km/h 88% 0.00in /  0mm 0 W/m2
01:19 61 °F /  16.1 °C 57.4 °F /  14.1 °C 29.94in /  1013.8hPa WNW 3.2mph /  5.1km/h 7mph /  11.3km/h 88% 0.00in /  0mm 0 W/m2
01:24 61 °F /  16.1 °C 57.4 °F /  14.1 °C 29.94in /  1013.8hPa West 3.3mph /  5.3km/h 6mph /  9.7km/h 88% 0.00in /  0mm 0 W/m2
01:29 61 °F /  16.1 °C 57.4 °F /  14.1 °C 29.94in /  1013.8hPa West 4.5mph /  7.2km/h 7mph /  11.3km/h 88% 0.00in /  0mm 0 W/m2
01:34 61.1 °F /  16.2 °C 57.5 °F /  14.2 °C 29.94in /  1013.8hPa West 3.7mph /  6km/h 6mph /  9.7km/h 88% 0.00in /  0mm 0 W/m2
01:39 61 °F /  16.1 °C 57.4 °F /  14.1 °C 29.94in /  1013.8hPa West 2.5mph /  4km/h 7mph /  11.3km/h 88% 0.00in /  0mm 0 W/m2
01:44 61 °F /  16.1 °C 57.4 °F /  14.1 °C 29.94in /  1013.8hPa West 3.7mph /  6km/h 7mph /  11.3km/h 88% 0.00in /  0mm 0 W/m2
01:49 60.9 °F /  16.1 °C 57.3 °F /  14.1 °C 29.94in /  1013.8hPa WNW 3.4mph /  5.5km/h 8mph /  12.9km/h 88% 0.00in /  0mm 0 W/m2
01:54 60.6 °F /  15.9 °C 57 °F /  13.9 °C 29.94in /  1013.8hPa NW 3.2mph /  5.1km/h 6mph /  9.7km/h 88% 0.00in /  0mm 0 W/m2
01:59 60.6 °F /  15.9 °C 57 °F /  13.9 °C 29.94in /  1013.8hPa WNW 1.2mph /  1.9km/h 5mph /  8km/h 88% 0.00in /  0mm 0 W/m2
02:04 60.5 °F /  15.8 °C 56.9 °F /  13.8 °C 29.94in /  1013.8hPa NW 3mph /  4.8km/h 6mph /  9.7km/h 88% 0.00in /  0mm 0 W/m2
02:09 60.4 °F /  15.8 °C 56.8 °F /  13.8 °C 29.94in /  1013.8hPa WNW 1.7mph /  2.7km/h 5mph /  8km/h 88% 0.00in /  0mm 0 W/m2
02:14 60.3 °F /  15.7 °C 56.7 °F /  13.7 °C 29.94in /  1013.8hPa NW 2.4mph /  3.9km/h 5mph /  8km/h 88% 0.00in /  0mm 0 W/m2
02:19 60.1 °F /  15.6 °C 56.7 °F /  13.7 °C 29.94in /  1013.8hPa NW 2.3mph /  3.7km/h 4mph /  6.4km/h 88.7% 0.00in /  0mm 0 W/m2
02:24 60.1 °F /  15.6 °C 56.6 °F /  13.7 °C 29.94in /  1013.8hPa NW 2mph /  3.2km/h 5mph /  8km/h 88.4% 0.00in /  0mm 0 W/m2
02:29 59.9 °F /  15.5 °C 56.7 °F /  13.7 °C 29.94in /  1013.8hPa NW 1.7mph /  2.7km/h 4mph /  6.4km/h 89% 0.00in /  0mm 0 W/m2
02:34 59.8 °F /  15.4 °C 56.6 °F /  13.7 °C 29.94in /  1013.8hPa NNW 2.2mph /  3.5km/h 4mph /  6.4km/h 89% 0.00in /  0mm 0 W/m2
02:39 59.7 °F /  15.4 °C 56.5 °F /  13.6 °C 29.94in /  1013.8hPa NNW 2mph /  3.2km/h 4mph /  6.4km/h 89% 0.00in /  0mm 0 W/m2
02:44 59.6 °F /  15.3 °C 56.4 °F /  13.6 °C 29.94in /  1013.8hPa NW 2.3mph /  3.7km/h 4mph /  6.4km/h 89% 0.00in /  0mm 0 W/m2
02:49 59.5 °F /  15.3 °C 56.3 °F /  13.5 °C 29.94in /  1013.8hPa NW 2.3mph /  3.7km/h 4mph /  6.4km/h 89% 0.00in /  0mm 0 W/m2
02:59 59.4 °F /  15.2 °C 56.1 °F /  13.4 °C 29.94in /  1013.8hPa NW 1mph /  1.6km/h 4mph /  6.4km/h 89% 0.00in /  0mm 0 W/m2
03:04 59.4 °F /  15.2 °C 56.1 °F /  13.4 °C 29.94in /  1013.8hPa Calm   2mph /  3.2km/h 89% 0.00in /  0mm 0 W/m2
03:09 59.2 °F /  15.1 °C 55.9 °F /  13.3 °C 29.94in /  1013.8hPa Calm     89% 0.00in /  0mm 0 W/m2
03:14 59.2 °F /  15.1 °C 55.9 °F /  13.3 °C 29.94in /  1013.8hPa NW 0.2mph /  0.3km/h 1mph /  1.6km/h 89% 0.00in /  0mm 0 W/m2
03:19 59.2 °F /  15.1 °C 56.1 °F /  13.4 °C 29.94in /  1013.8hPa Calm     89.6% 0.00in /  0mm 0 W/m2
03:23 59.1 °F /  15.1 °C 56.1 °F /  13.4 °C 29.94in /  1013.8hPa NW 1.7mph /  2.7km/h 3mph /  4.8km/h 89.8% 0.00in /  0mm 0 W/m2
03:29 59 °F /  15 °C 56.1 °F /  13.4 °C 29.94in /  1013.8hPa NW 0.7mph /  1.1km/h 3mph /  4.8km/h 90% 0.00in /  0mm 0 W/m2
03:34 58.8 °F /  14.9 °C 55.8 °F /  13.2 °C 29.94in /  1013.8hPa NW 0.8mph /  1.3km/h 3mph /  4.8km/h 89.6% 0.00in /  0mm 0 W/m2
03:39 58.8 °F /  14.9 °C 55.7 °F /  13.2 °C 29.94in /  1013.8hPa NW 0.6mph /  1km/h 2mph /  3.2km/h 89.2% 0.00in /  0mm 0 W/m2
03:44 58.6 °F /  14.8 °C 55.4 °F /  13 °C 29.94in /  1013.8hPa NW 0.4mph /  0.6km/h 3mph /  4.8km/h 89% 0.00in /  0mm 0 W/m2
03:49 58.5 °F /  14.7 °C 55.2 °F /  12.9 °C 29.94in /  1013.8hPa NW 2.4mph /  3.9km/h 4mph /  6.4km/h 89% 0.00in /  0mm 0 W/m2
03:54 58.5 °F /  14.7 °C 55.2 °F /  12.9 °C 29.94in /  1013.8hPa NW 2.1mph /  3.4km/h 5mph /  8km/h 89% 0.00in /  0mm 0 W/m2
03:59 58.3 °F /  14.6 °C 55 °F /  12.8 °C 29.94in /  1013.8hPa NW 1.3mph /  2.1km/h 5mph /  8km/h 89% 0.00in /  0mm 0 W/m2
04:04 58.3 °F /  14.6 °C 55 °F /  12.8 °C 29.94in /  1013.8hPa NW 1.8mph /  2.9km/h 3mph /  4.8km/h 89% 0.00in /  0mm 0 W/m2
04:09 58.3 °F /  14.6 °C 55 °F /  12.8 °C 29.95in /  1014.1hPa NW 1.6mph /  2.6km/h 4mph /  6.4km/h 89% 0.00in /  0mm 0 W/m2
04:14 58.3 °F /  14.6 °C 55 °F /  12.8 °C 29.95in /  1014.1hPa NW 1.5mph /  2.4km/h 3mph /  4.8km/h 89% 0.00in /  0mm 0 W/m2
04:19 58.1 °F /  14.5 °C 54.9 °F /  12.7 °C 29.95in /  1014.1hPa NW 1.3mph /  2.1km/h 3mph /  4.8km/h 89% 0.00in /  0mm 0 W/m2
04:24 58.1 °F /  14.5 °C 54.9 °F /  12.7 °C 29.95in /  1014.1hPa NW 0.8mph /  1.3km/h 3mph /  4.8km/h 89% 0.00in /  0mm 0 W/m2
04:29 58.1 °F /  14.5 °C 54.9 °F /  12.7 °C 29.95in /  1014.1hPa NW 1.4mph /  2.3km/h 4mph /  6.4km/h 89% 0.00in /  0mm 0 W/m2
04:33 58.1 °F /  14.5 °C 54.9 °F /  12.7 °C 29.95in /  1014.1hPa NW 1.5mph /  2.4km/h 3mph /  4.8km/h 89% 0.00in /  0mm 0 W/m2
04:39 58.1 °F /  14.5 °C 54.9 °F /  12.7 °C 29.95in /  1014.1hPa NW 1.2mph /  1.9km/h 3mph /  4.8km/h 89% 0.00in /  0mm 0 W/m2
04:44 58.1 °F /  14.5 °C 54.9 °F /  12.7 °C 29.95in /  1014.1hPa NW 0.8mph /  1.3km/h 3mph /  4.8km/h 89% 0.00in /  0mm 0 W/m2
04:49 57.9 °F /  14.4 °C 54.9 °F /  12.7 °C 29.95in /  1014.1hPa NW 0.8mph /  1.3km/h 2mph /  3.2km/h 89.6% 0.00in /  0mm 0 W/m2
04:54 57.9 °F /  14.4 °C 54.9 °F /  12.7 °C 29.95in /  1014.1hPa NW 2.1mph /  3.4km/h 4mph /  6.4km/h 89.8% 0.00in /  0mm 0 W/m2
04:59 57.9 °F /  14.4 °C 54.8 °F /  12.7 °C 29.95in /  1014.1hPa NW 1.6mph /  2.6km/h 4mph /  6.4km/h 89.2% 0.00in /  0mm 0 W/m2
05:04 57.9 °F /  14.4 °C 54.8 °F /  12.7 °C 29.95in /  1014.1hPa NW 1.6mph /  2.6km/h 3mph /  4.8km/h 89.2% 0.00in /  0mm 0 W/m2
05:09 57.7 °F /  14.3 °C 54.9 °F /  12.7 °C 29.95in /  1014.1hPa NW 1.4mph /  2.3km/h 4mph /  6.4km/h 90% 0.00in /  0mm 0 W/m2
05:14 57.7 °F /  14.3 °C 54.9 °F /  12.7 °C 29.95in /  1014.1hPa NW 1mph /  1.6km/h 4mph /  6.4km/h 90% 0.00in /  0mm 0 W/m2
05:19 57.7 °F /  14.3 °C 54.9 °F /  12.7 °C 29.95in /  1014.1hPa NW 1.8mph /  2.9km/h 4mph /  6.4km/h 90% 0.00in /  0mm 0 W/m2
05:24 57.7 °F /  14.3 °C 54.9 °F /  12.7 °C 29.95in /  1014.1hPa NW 1.4mph /  2.3km/h 3mph /  4.8km/h 90% 0.00in /  0mm 0 W/m2
05:29 57.7 °F /  14.3 °C 54.9 °F /  12.7 °C 29.96in /  1014.4hPa NW 1.2mph /  1.9km/h 4mph /  6.4km/h 90% 0.00in /  0mm 0 W/m2
05:33 57.7 °F /  14.3 °C 54.9 °F /  12.7 °C 29.96in /  1014.4hPa NW 2.5mph /  4km/h 4mph /  6.4km/h 90% 0.00in /  0mm 0 W/m2
05:39 57.9 °F /  14.4 °C 55 °F /  12.8 °C 29.96in /  1014.4hPa NW 0.5mph /  0.8km/h 3mph /  4.8km/h 90% 0.00in /  0mm 0 W/m2
05:44 57.9 °F /  14.4 °C 55 °F /  12.8 °C 29.96in /  1014.4hPa NW 0.2mph /  0.3km/h 3mph /  4.8km/h 90% 0.00in /  0mm 5 W/m2
05:49 58.1 °F /  14.5 °C 55.2 °F /  12.9 °C 29.96in /  1014.4hPa WSW 0.4mph /  0.6km/h 3mph /  4.8km/h 90% 0.00in /  0mm 12 W/m2
05:54 58.3 °F /  14.6 °C 55.4 °F /  13 °C 29.96in /  1014.4hPa Calm   2mph /  3.2km/h 90% 0.00in /  0mm 12 W/m2
05:59 58.5 °F /  14.7 °C 55.6 °F /  13.1 °C 29.96in /  1014.4hPa SW 0.6mph /  1km/h 4mph /  6.4km/h 90% 0.00in /  0mm 11 W/m2
06:04 58.5 °F /  14.7 °C 55.7 °F /  13.2 °C 29.96in /  1014.4hPa Calm     90% 0.00in /  0mm 14 W/m2
06:09 58.6 °F /  14.8 °C 55.8 °F /  13.2 °C 29.96in /  1014.4hPa Calm   2mph /  3.2km/h 90% 0.00in /  0mm 18 W/m2
06:14 58.6 °F /  14.8 °C 55.7 °F /  13.2 °C 29.96in /  1014.4hPa Calm     90% 0.00in /  0mm 26 W/m2
06:19 58.6 °F /  14.8 °C 55.8 °F /  13.2 °C 29.96in /  1014.4hPa Calm     90% 0.00in /  0mm 40 W/m2
06:24 58.6 °F /  14.8 °C 55.8 °F /  13.2 °C 29.96in /  1014.4hPa Calm     90% 0.00in /  0mm 35 W/m2
06:29 58.8 °F /  14.9 °C 55.9 °F /  13.3 °C 29.96in /  1014.4hPa Calm     90% 0.00in /  0mm 32 W/m2
06:34 58.8 °F /  14.9 °C 55.9 °F /  13.3 °C 29.96in /  1014.4hPa Calm     90% 0.00in /  0mm 33 W/m2
06:39 58.9 °F /  14.9 °C 56 °F /  13.3 °C 29.96in /  1014.4hPa Calm     90% 0.00in /  0mm 28 W/m2
06:44 59.1 °F /  15.1 °C 56.2 °F /  13.4 °C 29.96in /  1014.4hPa Calm   2mph /  3.2km/h 90% 0.00in /  0mm 46 W/m2
06:49 59.2 °F /  15.1 °C 56.3 °F /  13.5 °C 29.96in /  1014.4hPa Calm     89.8% 0.00in /  0mm 65 W/m2
06:53 59.4 °F /  15.2 °C 56.3 °F /  13.5 °C 29.96in /  1014.4hPa SW 0.5mph /  0.8km/h 2mph /  3.2km/h 89.3% 0.00in /  0mm 76 W/m2
06:59 59.5 °F /  15.3 °C 56.3 °F /  13.5 °C 29.96in /  1014.4hPa SW 2mph /  3.2km/h 5mph /  8km/h 89.2% 0.00in /  0mm 47 W/m2
07:04 59.5 °F /  15.3 °C 56.3 °F /  13.5 °C 29.96in /  1014.4hPa SW 0.2mph /  0.3km/h 5mph /  8km/h 89% 0.00in /  0mm 53 W/m2
07:09 59.7 °F /  15.4 °C 56.5 °F /  13.6 °C 29.96in /  1014.4hPa Calm   3mph /  4.8km/h 89% 0.00in /  0mm 62 W/m2
07:14 60 °F /  15.6 °C 56.8 °F /  13.8 °C 29.96in /  1014.4hPa Calm     89% 0.00in /  0mm 79 W/m2
07:19 60.1 °F /  15.6 °C 56.8 °F /  13.8 °C 29.96in /  1014.4hPa Calm     89% 0.00in /  0mm 63 W/m2
07:24 60.3 °F /  15.7 °C 57 °F /  13.9 °C 29.96in /  1014.4hPa Calm     89% 0.00in /  0mm 53 W/m2
07:29 60.3 °F /  15.7 °C 57 °F /  13.9 °C 29.96in /  1014.4hPa Calm     89% 0.00in /  0mm 39 W/m2
07:33 60.4 °F /  15.8 °C 57.2 °F /  14 °C 29.96in /  1014.4hPa Calm   1mph /  1.6km/h 89% 0.00in /  0mm 39 W/m2
07:39 60.6 °F /  15.9 °C 57 °F /  13.9 °C 29.96in /  1014.4hPa SW 1.8mph /  2.9km/h 5mph /  8km/h 88.2% 0.00in /  0mm 70 W/m2
07:44 60.8 °F /  16 °C 57.2 °F /  14 °C 29.96in /  1014.4hPa WSW 3.3mph /  5.3km/h 7mph /  11.3km/h 88% 0.00in /  0mm 74 W/m2
07:49 61 °F /  16.1 °C 57.4 °F /  14.1 °C 29.96in /  1014.4hPa Calm   3mph /  4.8km/h 88% 0.00in /  0mm 72 W/m2
07:54 61.2 °F /  16.2 °C 57.6 °F /  14.2 °C 29.96in /  1014.4hPa West 1.8mph /  2.9km/h 5mph /  8km/h 88% 0.00in /  0mm 146 W/m2
07:59 61.2 °F /  16.2 °C 57.6 °F /  14.2 °C 29.96in /  1014.4hPa WNW 1.7mph /  2.7km/h 5mph /  8km/h 88% 0.00in /  0mm 218 W/m2
08:04 61.3 °F /  16.3 °C 57.6 °F /  14.2 °C 29.96in /  1014.4hPa West 2.2mph /  3.5km/h 6mph /  9.7km/h 87.8% 0.00in /  0mm 155 W/m2
08:09 61.6 °F /  16.4 °C 57.8 °F /  14.3 °C 29.96in /  1014.4hPa WSW 4mph /  6.4km/h 8mph /  12.9km/h 87.4% 0.00in /  0mm 156 W/m2
08:14 62 °F /  16.7 °C 58 °F /  14.4 °C 29.97in /  1014.8hPa SW 3.9mph /  6.3km/h 8mph /  12.9km/h 87% 0.00in /  0mm 176 W/m2
08:19 62 °F /  16.7 °C 57.7 °F /  14.3 °C 29.97in /  1014.8hPa SW 4.7mph /  7.6km/h 8mph /  12.9km/h 86.2% 0.00in /  0mm 149 W/m2
08:24 62.1 °F /  16.7 °C 57.8 °F /  14.3 °C 29.97in /  1014.8hPa SW 2.1mph /  3.4km/h 6mph /  9.7km/h 86% 0.00in /  0mm 149 W/m2
08:29 62.1 °F /  16.7 °C 57.8 °F /  14.3 °C 29.97in /  1014.8hPa SW 5.5mph /  8.9km/h 10mph /  16.1km/h 86% 0.00in /  0mm 134 W/m2
08:34 62.2 °F /  16.8 °C 57.8 °F /  14.3 °C 29.97in /  1014.8hPa SW 4.4mph /  7.1km/h 8mph /  12.9km/h 85.8% 0.00in /  0mm 169 W/m2
08:39 62.4 °F /  16.9 °C 57.9 °F /  14.4 °C 29.97in /  1014.8hPa WSW 3.3mph /  5.3km/h 6mph /  9.7km/h 85% 0.00in /  0mm 192 W/m2
08:44 62.6 °F /  17 °C 58.1 °F /  14.5 °C 29.97in /  1014.8hPa SW 5mph /  8km/h 10mph /  16.1km/h 85% 0.00in /  0mm 207 W/m2
08:49 62.4 °F /  16.9 °C 57.8 °F /  14.3 °C 29.97in /  1014.8hPa WSW 2.6mph /  4.2km/h 9mph /  14.5km/h 84.4% 0.00in /  0mm 141 W/m2
08:54 62.8 °F /  17.1 °C 58.2 °F /  14.6 °C 29.98in /  1015.1hPa SW 3.8mph /  6.1km/h 8mph /  12.9km/h 84.8% 0.00in /  0mm 135 W/m2
08:59 62.8 °F /  17.1 °C 57.9 °F /  14.4 °C 29.98in /  1015.1hPa SW 2.6mph /  4.2km/h 6mph /  9.7km/h 84% 0.00in /  0mm 142 W/m2
09:04 62.8 °F /  17.1 °C 57.9 °F /  14.4 °C 29.98in /  1015.1hPa WSW 3.9mph /  6.3km/h 9mph /  14.5km/h 84% 0.00in /  0mm 158 W/m2
09:09 63 °F /  17.2 °C 58.1 °F /  14.5 °C 29.98in /  1015.1hPa SW 3.3mph /  5.3km/h 8mph /  12.9km/h 84% 0.00in /  0mm 144 W/m2
09:14 63 °F /  17.2 °C 58.1 °F /  14.5 °C 29.98in /  1015.1hPa SW 4mph /  6.4km/h 9mph /  14.5km/h 84% 0.00in /  0mm 204 W/m2
09:19 63.1 °F /  17.3 °C 58.3 °F /  14.6 °C 29.98in /  1015.1hPa WSW 4.9mph /  7.9km/h 7mph /  11.3km/h 84% 0.00in /  0mm 257 W/m2
09:24 63.3 °F /  17.4 °C 58.4 °F /  14.7 °C 29.98in /  1015.1hPa WSW 4.6mph /  7.4km/h 7mph /  11.3km/h 83.8% 0.00in /  0mm 408 W/m2
09:29 63.8 °F /  17.7 °C 58.6 °F /  14.8 °C 29.98in /  1015.1hPa SW 1.8mph /  2.9km/h 6mph /  9.7km/h 83% 0.00in /  0mm 274 W/m2
09:34 64 °F /  17.8 °C 58.6 °F /  14.8 °C 29.98in /  1015.1hPa SSW 3.3mph /  5.3km/h 8mph /  12.9km/h 82.2% 0.00in /  0mm 267 W/m2
09:39 64.2 °F /  17.9 °C 58.5 °F /  14.7 °C 29.98in /  1015.1hPa SW 4.2mph /  6.8km/h 7mph /  11.3km/h 81.8% 0.00in /  0mm 281 W/m2
09:44 64.7 °F /  18.2 °C 59 °F /  15 °C 29.98in /  1015.1hPa SW 4.1mph /  6.6km/h 9mph /  14.5km/h 81.6% 0.00in /  0mm 596 W/m2
09:49 65.3 °F /  18.5 °C 59 °F /  15 °C 29.98in /  1015.1hPa SW 4.7mph /  7.6km/h 9mph /  14.5km/h 80% 0.00in /  0mm 707 W/m2
09:54 65.6 °F /  18.7 °C 58.9 °F /  14.9 °C 29.98in /  1015.1hPa SW 4.9mph /  7.9km/h 12mph /  19.3km/h 78.8% 0.00in /  0mm 842 W/m2
09:59 65.9 °F /  18.8 °C 59 °F /  15 °C 29.98in /  1015.1hPa WSW 5mph /  8km/h 10mph /  16.1km/h 78.4% 0.00in /  0mm 362 W/m2
10:04 65.6 °F /  18.7 °C 58.6 °F /  14.8 °C 29.98in /  1015.1hPa WSW 4.9mph /  7.9km/h 10mph /  16.1km/h 78% 0.00in /  0mm 218 W/m2
10:09 65.5 °F /  18.6 °C 58.5 °F /  14.7 °C 29.98in /  1015.1hPa West 3.6mph /  5.8km/h 10mph /  16.1km/h 78% 0.00in /  0mm 258 W/m2
10:14 65.6 °F /  18.7 °C 58.8 °F /  14.9 °C 29.98in /  1015.1hPa WSW 3.7mph /  6km/h 8mph /  12.9km/h 78.8% 0.00in /  0mm 244 W/m2
10:18 65.7 °F /  18.7 °C 58.7 °F /  14.8 °C 29.98in /  1015.1hPa SW 5.8mph /  9.3km/h 9mph /  14.5km/h 78.3% 0.00in /  0mm 258 W/m2
10:24 65.5 °F /  18.6 °C 58.6 °F /  14.8 °C 29.98in /  1015.1hPa SW 7.4mph /  11.9km/h 12mph /  19.3km/h 78.4% 0.00in /  0mm 315 W/m2
10:29 65.3 °F /  18.5 °C 58.8 °F /  14.9 °C 29.98in /  1015.1hPa WSW 4.4mph /  7.1km/h 12mph /  19.3km/h 79.5% 0.00in /  0mm 373 W/m2
10:34 65.5 °F /  18.6 °C 59.2 °F /  15.1 °C 29.99in /  1015.5hPa WSW 5.9mph /  9.5km/h 11mph /  17.7km/h 80% 0.00in /  0mm 294 W/m2
10:39 64.8 °F /  18.2 °C 58.7 °F /  14.8 °C 30.00in /  1015.8hPa WNW 6.4mph /  10.3km/h 15mph /  24.1km/h 80.6% 0.01in /  0.25mm 97 W/m2
10:44 63 °F /  17.2 °C 57.9 °F /  14.4 °C 30.00in /  1015.8hPa WNW 7.4mph /  11.9km/h 11mph /  17.7km/h 83.6% 0.02in /  0.51mm 135 W/m2
10:49 62.2 °F /  16.8 °C 57.9 °F /  14.4 °C 30.00in /  1015.8hPa WNW 6mph /  9.7km/h 9mph /  14.5km/h 86.2% 0.02in /  0.51mm 271 W/m2
10:54 62.2 °F /  16.8 °C 58.4 °F /  14.7 °C 30.00in /  1015.8hPa West 3.9mph /  6.3km/h 8mph /  12.9km/h 87.6% 0.02in /  0.51mm 355 W/m2
10:59 62.3 °F /  16.8 °C 59 °F /  15 °C 30.00in /  1015.8hPa West 4.6mph /  7.4km/h 9mph /  14.5km/h 88.6% 0.02in /  0.51mm 364 W/m2
11:04 62.4 °F /  16.9 °C 59.2 °F /  15.1 °C 30.00in /  1015.8hPa WNW 7.2mph /  11.6km/h 10mph /  16.1km/h 89% 0.02in /  0.51mm 287 W/m2
11:09 62.5 °F /  16.9 °C 59.3 °F /  15.2 °C 30.00in /  1015.8hPa NW 5.5mph /  8.9km/h 16mph /  25.7km/h 89% 0.02in /  0.51mm 294 W/m2
11:14 62.6 °F /  17 °C 59 °F /  15 °C 30.00in /  1015.8hPa WNW 6.1mph /  9.8km/h 16mph /  25.7km/h 88% 0.02in /  0.51mm 329 W/m2
11:19 62.8 °F /  17.1 °C 58.9 °F /  14.9 °C 30.00in /  1015.8hPa West 6.2mph /  10km/h 11mph /  17.7km/h 87.2% 0.02in /  0.51mm 327 W/m2
11:24 63.2 °F /  17.3 °C 59 °F /  15 °C 30.00in /  1015.8hPa WNW 4.9mph /  7.9km/h 11mph /  17.7km/h 86% 0.02in /  0.51mm 334 W/m2
11:29 63.7 °F /  17.6 °C 59.2 °F /  15.1 °C 30.00in /  1015.8hPa WNW 6.2mph /  10km/h 11mph /  17.7km/h 85.4% 0.02in /  0.51mm 411 W/m2
11:34 63.9 °F /  17.7 °C 58.9 °F /  14.9 °C 30.00in /  1015.8hPa West 9.6mph /  15.4km/h 15mph /  24.1km/h 83.6% 0.02in /  0.51mm 350 W/m2
11:39 64.1 °F /  17.8 °C 58.4 °F /  14.7 °C 30.00in /  1015.8hPa West 8.2mph /  13.2km/h 12mph /  19.3km/h 81.6% 0.02in /  0.51mm 450 W/m2
11:44 64.6 °F /  18.1 °C 58 °F /  14.4 °C 30.00in /  1015.8hPa West 6.2mph /  10km/h 14mph /  22.5km/h 79.4% 0.01in /  0.25mm 346 W/m2
11:49 64.8 °F /  18.2 °C 58 °F /  14.4 °C 30.00in /  1015.8hPa WNW 7mph /  11.3km/h 11mph /  17.7km/h 78.6% 0.00in /  0mm 552 W/m2
11:54 65 °F /  18.3 °C 57.8 °F /  14.3 °C 30.00in /  1015.8hPa West 6.6mph /  10.6km/h 11mph /  17.7km/h 77.4% 0.00in /  0mm 338 W/m2
11:59 65.5 °F /  18.6 °C 57.7 °F /  14.3 °C 30.00in /  1015.8hPa WNW 6.4mph /  10.3km/h 11mph /  17.7km/h 76% 0.00in /  0mm 533 W/m2
12:04 66.3 °F /  19.1 °C 57.5 °F /  14.2 °C 30.00in /  1015.8hPa West 8.2mph /  13.2km/h 14mph /  22.5km/h 73.2% 0.00in /  0mm 861 W/m2
12:09 66.9 °F /  19.4 °C 57 °F /  13.9 °C 30.00in /  1015.8hPa West 8mph /  12.9km/h 18mph /  29km/h 70.4% 0.00in /  0mm 942 W/m2
12:14 67.5 °F /  19.7 °C 57.3 °F /  14.1 °C 30.00in /  1015.8hPa WNW 9mph /  14.5km/h 18mph /  29km/h 69.8% 0.00in /  0mm 946 W/m2
12:19 67.3 °F /  19.6 °C 56.8 °F /  13.8 °C 30.00in /  1015.8hPa West 8.3mph /  13.4km/h 15mph /  24.1km/h 68.8% 0.00in /  0mm 946 W/m2
12:24 67.8 °F /  19.9 °C 57.1 °F /  13.9 °C 30.00in /  1015.8hPa West 8.6mph /  13.8km/h 17mph /  27.4km/h 68.6% 0.00in /  0mm 875 W/m2
12:29 68.3 °F /  20.2 °C 57.4 °F /  14.1 °C 30.00in /  1015.8hPa WNW 8mph /  12.9km/h 15mph /  24.1km/h 68% 0.00in /  0mm 946 W/m2
12:33 68.3 °F /  20.2 °C 57.3 °F /  14.1 °C 30.00in /  1015.8hPa WNW 12mph /  19.3km/h 17mph /  27.4km/h 67.8% 0.00in /  0mm 1041 W/m2
12:39 68 °F /  20 °C 56.4 °F /  13.6 °C 30.00in /  1015.8hPa WNW 7.8mph /  12.6km/h 17mph /  27.4km/h 66.4% 0.00in /  0mm 482 W/m2
12:44 67.7 °F /  19.8 °C 56.7 °F /  13.7 °C 30.00in /  1015.8hPa WNW 5.2mph /  8.4km/h 15mph /  24.1km/h 68% 0.00in /  0mm 905 W/m2
12:49 67.9 °F /  19.9 °C 56.3 °F /  13.5 °C 30.00in /  1015.8hPa WNW 8.6mph /  13.8km/h 17mph /  27.4km/h 66.4% 0.00in /  0mm 262 W/m2
12:54 67.7 °F /  19.8 °C 56.4 °F /  13.6 °C 30.00in /  1015.8hPa WNW 8.2mph /  13.2km/h 15mph /  24.1km/h 67.2% 0.00in /  0mm 378 W/m2
12:59 68 °F /  20 °C 57.1 °F /  13.9 °C 30.00in /  1015.8hPa WNW 6.6mph /  10.6km/h 14mph /  22.5km/h 68% 0.00in /  0mm 691 W/m2
13:03 69.2 °F /  20.7 °C 58.1 °F /  14.5 °C 30.00in /  1015.8hPa West 9.2mph /  14.8km/h 14mph /  22.5km/h 67.8% 0.00in /  0mm 1248 W/m2
13:09 68.7 °F /  20.4 °C 57.9 °F /  14.4 °C 30.00in /  1015.8hPa WNW 7.8mph /  12.6km/h 15mph /  24.1km/h 68.6% 0.00in /  0mm 601 W/m2
13:14 68 °F /  20 °C 58.2 °F /  14.6 °C 30.00in /  1015.8hPa NW 8.8mph /  14.2km/h 18mph /  29km/h 70.8% 0.00in /  0mm 499 W/m2
13:19 67.4 °F /  19.7 °C 57.9 °F /  14.4 °C 30.00in /  1015.8hPa WNW 11.5mph /  18.5km/h 18mph /  29km/h 71.8% 0.00in /  0mm 536 W/m2
13:24 67.5 °F /  19.7 °C 58.1 °F /  14.5 °C 30.00in /  1015.8hPa West 9.2mph /  14.8km/h 16mph /  25.7km/h 71.8% 0.00in /  0mm 1069 W/m2
13:29 68.2 °F /  20.1 °C 58.6 °F /  14.8 °C 30.00in /  1015.8hPa West 10.8mph /  17.4km/h 16mph /  25.7km/h 71.2% 0.00in /  0mm 1113 W/m2
13:34 68.5 °F /  20.3 °C 59.2 °F /  15.1 °C 30.00in /  1015.8hPa West 10.5mph /  16.9km/h 14mph /  22.5km/h 72% 0.00in /  0mm 854 W/m2
13:39 68.3 °F /  20.2 °C 58.5 °F /  14.7 °C 30.01in /  1016.1hPa WNW 6.7mph /  10.8km/h 15mph /  24.1km/h 70.8% 0.00in /  0mm 628 W/m2
13:44 68.7 °F /  20.4 °C 58.1 °F /  14.5 °C 30.01in /  1016.1hPa WNW 8.6mph /  13.8km/h 20mph /  32.2km/h 69% 0.00in /  0mm 1130 W/m2
13:49 68.3 °F /  20.2 °C 56.8 °F /  13.8 °C 30.01in /  1016.1hPa WNW 9.9mph /  15.9km/h 20mph /  32.2km/h 66.8% 0.00in /  0mm 1130 W/m2
13:54 68.5 °F /  20.3 °C 56.9 °F /  13.8 °C 30.01in /  1016.1hPa WNW 8.8mph /  14.2km/h 17mph /  27.4km/h 66.4% 0.00in /  0mm 976 W/m2
13:59 68.3 °F /  20.2 °C 57.1 °F /  13.9 °C 30.01in /  1016.1hPa West 6.4mph /  10.3km/h 17mph /  27.4km/h 67.2% 0.00in /  0mm 846 W/m2
14:04 68.4 °F /  20.2 °C 57.4 °F /  14.1 °C 30.01in /  1016.1hPa West 10mph /  16.1km/h 18mph /  29km/h 68% 0.00in /  0mm 858 W/m2
14:09 68.5 °F /  20.3 °C 57.9 °F /  14.4 °C 30.00in /  1015.8hPa WNW 9.2mph /  14.8km/h 15mph /  24.1km/h 69% 0.00in /  0mm 990 W/m2
14:14 69.6 °F /  20.9 °C 58.2 °F /  14.6 °C 30.00in /  1015.8hPa West 7.5mph /  12.1km/h 21mph /  33.8km/h 67.2% 0.00in /  0mm 990 W/m2
14:19 69.1 °F /  20.6 °C 57.2 °F /  14 °C 30.01in /  1016.1hPa WNW 9.4mph /  15.1km/h 21mph /  33.8km/h 66% 0.00in /  0mm 932 W/m2
14:24 68.5 °F /  20.3 °C 56.7 °F /  13.7 °C 30.01in /  1016.1hPa WNW 11.4mph /  18.3km/h 17mph /  27.4km/h 66.2% 0.00in /  0mm 932 W/m2
14:29 68.4 °F /  20.2 °C 56.8 °F /  13.8 °C 30.01in /  1016.1hPa WNW 7.6mph /  12.2km/h 14mph /  22.5km/h 66.6% 0.00in /  0mm 791 W/m2
14:34 68.5 °F /  20.3 °C 56.8 °F /  13.8 °C 30.01in /  1016.1hPa WNW 7.2mph /  11.6km/h 15mph /  24.1km/h 66.4% 0.00in /  0mm 895 W/m2
14:39 68.9 °F /  20.5 °C 56.5 °F /  13.6 °C 30.01in /  1016.1hPa West 10.3mph /  16.6km/h 20mph /  32.2km/h 64.6% 0.00in /  0mm 840 W/m2
14:44 68.5 °F /  20.3 °C 56.3 °F /  13.5 °C 30.01in /  1016.1hPa WNW 7.8mph /  12.6km/h 20mph /  32.2km/h 65% 0.00in /  0mm 831 W/m2
14:49 68.4 °F /  20.2 °C 56.4 °F /  13.6 °C 30.01in /  1016.1hPa WNW 10.6mph /  17.1km/h 18mph /  29km/h 65.6% 0.00in /  0mm 847 W/m2
14:54 68.7 °F /  20.4 °C 56.7 °F /  13.7 °C 30.01in /  1016.1hPa West 12.2mph /  19.6km/h 16mph /  25.7km/h 65.6% 0.00in /  0mm 840 W/m2
14:59 68.2 °F /  20.1 °C 56.5 °F /  13.6 °C 30.01in /  1016.1hPa West 10.2mph /  16.4km/h 15mph /  24.1km/h 66.4% 0.00in /  0mm 793 W/m2
15:04 68.6 °F /  20.3 °C 57.2 °F /  14 °C 30.01in /  1016.1hPa WNW 8mph /  12.9km/h 15mph /  24.1km/h 66.8% 0.00in /  0mm 851 W/m2
15:09 69.3 °F /  20.7 °C 57 °F /  13.9 °C 30.01in /  1016.1hPa West 9.2mph /  14.8km/h 16mph /  25.7km/h 65% 0.00in /  0mm 789 W/m2
15:14 69.1 °F /  20.6 °C 56.3 °F /  13.5 °C 30.01in /  1016.1hPa West 9.2mph /  14.8km/h 17mph /  27.4km/h 63.8% 0.00in /  0mm 756 W/m2
15:19 68.7 °F /  20.4 °C 56.5 °F /  13.6 °C 30.01in /  1016.1hPa WNW 9.8mph /  15.8km/h 16mph /  25.7km/h 65% 0.00in /  0mm 805 W/m2
15:24 68.2 °F /  20.1 °C 56.3 °F /  13.5 °C 30.01in /  1016.1hPa WNW 8.6mph /  13.8km/h 16mph /  25.7km/h 66% 0.00in /  0mm 805 W/m2
15:29 68.6 °F /  20.3 °C 56.4 °F /  13.6 °C 30.01in /  1016.1hPa WSW 8mph /  12.9km/h 17mph /  27.4km/h 65.2% 0.00in /  0mm 786 W/m2
15:34 68.9 °F /  20.5 °C 56.5 °F /  13.6 °C 30.01in /  1016.1hPa West 9.2mph /  14.8km/h 17mph /  27.4km/h 64.8% 0.00in /  0mm 761 W/m2
15:39 68.6 °F /  20.3 °C 56.4 °F /  13.6 °C 30.01in /  1016.1hPa West 11.4mph /  18.3km/h 21mph /  33.8km/h 65.2% 0.00in /  0mm 751 W/m2
15:43 68.3 °F /  20.2 °C 56.1 °F /  13.4 °C 30.01in /  1016.1hPa West 9.3mph /  15km/h 21mph /  33.8km/h 65.3% 0.00in /  0mm 721 W/m2
15:49 68.2 °F /  20.1 °C 56.1 °F /  13.4 °C 30.01in /  1016.1hPa West 9.9mph /  15.9km/h 19mph /  30.6km/h 65.4% 0.00in /  0mm 712 W/m2
15:54 68.6 °F /  20.3 °C 56.4 °F /  13.6 °C 30.01in /  1016.1hPa West 8.4mph /  13.5km/h 17mph /  27.4km/h 65% 0.00in /  0mm 686 W/m2
15:59 68.9 °F /  20.5 °C 56.3 °F /  13.5 °C 30.01in /  1016.1hPa West 6.4mph /  10.3km/h 16mph /  25.7km/h 64.2% 0.00in /  0mm 721 W/m2
16:04 69 °F /  20.6 °C 56.7 °F /  13.7 °C 30.01in /  1016.1hPa West 7.4mph /  11.9km/h 13mph /  20.9km/h 64.8% 0.00in /  0mm 671 W/m2
16:09 68.9 °F /  20.5 °C 56.8 °F /  13.8 °C 30.01in /  1016.1hPa West 9.2mph /  14.8km/h 17mph /  27.4km/h 65.4% 0.00in /  0mm 701 W/m2
16:14 68.9 °F /  20.5 °C 57.1 °F /  13.9 °C 30.01in /  1016.1hPa NW 7mph /  11.3km/h 14mph /  22.5km/h 66.2% 0.00in /  0mm 701 W/m2
16:19 68.5 °F /  20.3 °C 56.9 °F /  13.8 °C 30.01in /  1016.1hPa WNW 10.2mph /  16.4km/h 18mph /  29km/h 66.4% 0.00in /  0mm 679 W/m2
16:24 68.4 °F /  20.2 °C 56.5 °F /  13.6 °C 30.01in /  1016.1hPa WNW 11.2mph /  18km/h 18mph /  29km/h 66% 0.00in /  0mm 686 W/m2
16:29 68.3 °F /  20.2 °C 56.7 °F /  13.7 °C 30.01in /  1016.1hPa NW 8.4mph /  13.5km/h 18mph /  29km/h 66.6% 0.00in /  0mm 642 W/m2
16:34 68.3 °F /  20.2 °C 56.5 °F /  13.6 °C 30.01in /  1016.1hPa WNW 10mph /  16.1km/h 19mph /  30.6km/h 66.3% 0.00in /  0mm 543 W/m2
16:39 67.4 °F /  19.7 °C 56.3 °F /  13.5 °C 30.01in /  1016.1hPa West 9.8mph /  15.8km/h 19mph /  30.6km/h 67.6% 0.00in /  0mm 517 W/m2
16:44 67.5 °F /  19.7 °C 56.5 °F /  13.6 °C 30.01in /  1016.1hPa WNW 10.7mph /  17.2km/h 18mph /  29km/h 68% 0.00in /  0mm 596 W/m2
16:49 67.6 °F /  19.8 °C 57 °F /  13.9 °C 30.01in /  1016.1hPa WNW 8.8mph /  14.2km/h 17mph /  27.4km/h 69% 0.00in /  0mm 612 W/m2
16:54 68.1 °F /  20.1 °C 57.1 °F /  13.9 °C 30.01in /  1016.1hPa NW 9.8mph /  15.8km/h 14mph /  22.5km/h 68% 0.00in /  0mm 585 W/m2
16:59 67.7 °F /  19.8 °C 56.7 °F /  13.7 °C 30.01in /  1016.1hPa WNW 9.6mph /  15.4km/h 18mph /  29km/h 67.8% 0.00in /  0mm 577 W/m2
17:04 67.6 °F /  19.8 °C 56.6 °F /  13.7 °C 30.01in /  1016.1hPa NW 9.2mph /  14.8km/h 17mph /  27.4km/h 68% 0.00in /  0mm 547 W/m2
17:09 67.7 °F /  19.8 °C 56.5 °F /  13.6 °C 30.01in /  1016.1hPa WNW 7.4mph /  11.9km/h 17mph /  27.4km/h 67.4% 0.00in /  0mm 536 W/m2
17:14 67.7 °F /  19.8 °C 56.3 °F /  13.5 °C 30.01in /  1016.1hPa WNW 8.8mph /  14.2km/h 14mph /  22.5km/h 67% 0.00in /  0mm 524 W/m2
17:19 67.7 °F /  19.8 °C 56.5 °F /  13.6 °C 30.01in /  1016.1hPa West 10mph /  16.1km/h 17mph /  27.4km/h 67.2% 0.00in /  0mm 522 W/m2
17:24 67.3 °F /  19.6 °C 55.8 °F /  13.2 °C 30.01in /  1016.1hPa WNW 8.2mph /  13.2km/h 17mph /  27.4km/h 66.6% 0.00in /  0mm 494 W/m2
17:29 66.9 °F /  19.4 °C 55.6 °F /  13.1 °C 30.01in /  1016.1hPa WNW 12.6mph /  20.3km/h 19mph /  30.6km/h 66.8% 0.00in /  0mm 485 W/m2
17:34 67 °F /  19.4 °C 55.6 °F /  13.1 °C 30.02in /  1016.5hPa WNW 7.3mph /  11.7km/h 19mph /  30.6km/h 66.6% 0.00in /  0mm 471 W/m2
17:39 67.2 °F /  19.6 °C 55.8 °F /  13.2 °C 30.02in /  1016.5hPa West 8.2mph /  13.2km/h 16mph /  25.7km/h 66.8% 0.00in /  0mm 462 W/m2
17:44 67.1 °F /  19.5 °C 55.6 °F /  13.1 °C 30.01in /  1016.1hPa WNW 9.8mph /  15.8km/h 17mph /  27.4km/h 66.8% 0.00in /  0mm 443 W/m2
17:49 66.8 °F /  19.3 °C 55.5 °F /  13.1 °C 30.01in /  1016.1hPa WNW 9mph /  14.5km/h 15mph /  24.1km/h 67% 0.00in /  0mm 431 W/m2
17:54 66.8 °F /  19.3 °C 55.4 °F /  13 °C 30.01in /  1016.1hPa WNW 10.8mph /  17.4km/h 17mph /  27.4km/h 66.6% 0.00in /  0mm 417 W/m2
17:59 66.6 °F /  19.2 °C 55.2 °F /  12.9 °C 30.01in /  1016.1hPa WNW 9.6mph /  15.4km/h 15mph /  24.1km/h 67% 0.00in /  0mm 410 W/m2
18:04 66.7 °F /  19.3 °C 55.4 °F /  13 °C 30.01in /  1016.1hPa West 9mph /  14.5km/h 16mph /  25.7km/h 67% 0.00in /  0mm 392 W/m2
18:09 66.5 °F /  19.2 °C 55.2 °F /  12.9 °C 30.01in /  1016.1hPa West 8.8mph /  14.2km/h 16mph /  25.7km/h 67% 0.00in /  0mm 380 W/m2
18:14 66.4 °F /  19.1 °C 55 °F /  12.8 °C 30.01in /  1016.1hPa WNW 9.4mph /  15.1km/h 18mph /  29km/h 67% 0.00in /  0mm 371 W/m2
18:19 66.4 °F /  19.1 °C 55.4 °F /  13 °C 30.02in /  1016.5hPa West 7.6mph /  12.2km/h 18mph /  29km/h 67.6% 0.00in /  0mm 350 W/m2
18:24 66.2 °F /  19 °C 54.9 °F /  12.7 °C 30.02in /  1016.5hPa WNW 8.6mph /  13.8km/h 15mph /  24.1km/h 67% 0.00in /  0mm 345 W/m2
18:29 66.5 °F /  19.2 °C 55.1 °F /  12.8 °C 30.02in /  1016.5hPa West 9mph /  14.5km/h 15mph /  24.1km/h 67% 0.00in /  0mm 330 W/m2
18:34 66.2 °F /  19 °C 54.6 °F /  12.6 °C 30.01in /  1016.1hPa WNW 9.2mph /  14.8km/h 18mph /  29km/h 66.5% 0.00in /  0mm 311 W/m2
18:39 65.8 °F /  18.8 °C 54.2 °F /  12.3 °C 30.02in /  1016.5hPa West 8.8mph /  14.2km/h 18mph /  29km/h 66.4% 0.00in /  0mm 301 W/m2
18:44 66.1 °F /  18.9 °C 54.8 °F /  12.7 °C 30.01in /  1016.1hPa WNW 5.6mph /  9km/h 11mph /  17.7km/h 67% 0.00in /  0mm 285 W/m2
18:49 65.8 °F /  18.8 °C 54.1 °F /  12.3 °C 30.01in /  1016.1hPa WNW 7.4mph /  11.9km/h 18mph /  29km/h 66% 0.00in /  0mm 271 W/m2
18:54 65.5 °F /  18.6 °C 53.8 °F /  12.1 °C 30.01in /  1016.1hPa West 9mph /  14.5km/h 18mph /  29km/h 66% 0.00in /  0mm 260 W/m2
18:59 65.5 °F /  18.6 °C 54 °F /  12.2 °C 30.01in /  1016.1hPa West 7.4mph /  11.9km/h 13mph /  20.9km/h 66.4% 0.00in /  0mm 244 W/m2
19:04 65.7 °F /  18.7 °C 54.1 °F /  12.3 °C 30.02in /  1016.5hPa West 11mph /  17.7km/h 13mph /  20.9km/h 66.5% 0.00in /  0mm 236 W/m2
19:09 65.4 °F /  18.6 °C 54.2 °F /  12.3 °C 30.02in /  1016.5hPa West 6.5mph /  10.5km/h 14mph /  22.5km/h 67% 0.00in /  0mm 223 W/m2
19:14 65.2 °F /  18.4 °C 54.1 °F /  12.3 °C 30.02in /  1016.5hPa WNW 7.5mph /  12.1km/h 17mph /  27.4km/h 67% 0.00in /  0mm 207 W/m2
19:19 64.9 °F /  18.3 °C 53.8 °F /  12.1 °C 30.01in /  1016.1hPa WNW 9.8mph /  15.8km/h 14mph /  22.5km/h 67% 0.00in /  0mm 192 W/m2
19:24 64.6 °F /  18.1 °C 53.8 °F /  12.1 °C 30.01in /  1016.1hPa WNW 10mph /  16.1km/h 15mph /  24.1km/h 68% 0.00in /  0mm 179 W/m2
19:29 64.5 °F /  18.1 °C 53.7 °F /  12.1 °C 30.02in /  1016.5hPa WNW 8mph /  12.9km/h 17mph /  27.4km/h 68% 0.00in /  0mm 165 W/m2
19:34 64.3 °F /  17.9 °C 53.5 °F /  11.9 °C 30.02in /  1016.5hPa West 11.2mph /  18km/h 16mph /  25.7km/h 68% 0.00in /  0mm 149 W/m2
19:39 63.8 °F /  17.7 °C 53 °F /  11.7 °C 30.02in /  1016.5hPa West 8.8mph /  14.2km/h 17mph /  27.4km/h 68% 0.00in /  0mm 132 W/m2
19:44 63.7 °F /  17.6 °C 53.2 °F /  11.8 °C 30.02in /  1016.5hPa West 8.6mph /  13.8km/h 17mph /  27.4km/h 69% 0.00in /  0mm 120 W/m2
19:49 63.5 °F /  17.5 °C 53.1 °F /  11.7 °C 30.02in /  1016.5hPa West 8.6mph /  13.8km/h 16mph /  25.7km/h 69% 0.00in /  0mm 102 W/m2
19:54 63.1 °F /  17.3 °C 52.9 °F /  11.6 °C 30.02in /  1016.5hPa WNW 8.6mph /  13.8km/h 16mph /  25.7km/h 69% 0.00in /  0mm 90 W/m2
19:59 63.2 °F /  17.3 °C 53.3 °F /  11.8 °C 30.02in /  1016.5hPa WNW 6.3mph /  10.1km/h 16mph /  25.7km/h 69.8% 0.00in /  0mm 76 W/m2
20:04 63.1 °F /  17.3 °C 53.2 °F /  11.8 °C 30.02in /  1016.5hPa West 6.6mph /  10.6km/h 16mph /  25.7km/h 70% 0.00in /  0mm 62 W/m2
20:09 62.8 °F /  17.1 °C 53.1 °F /  11.7 °C 30.02in /  1016.5hPa West 7mph /  11.3km/h 12mph /  19.3km/h 70.6% 0.00in /  0mm 53 W/m2
20:14 62.4 °F /  16.9 °C 52.6 °F /  11.4 °C 30.02in /  1016.5hPa WNW 8mph /  12.9km/h 15mph /  24.1km/h 70.2% 0.00in /  0mm 40 W/m2
20:19 62.1 °F /  16.7 °C 52.8 °F /  11.6 °C 30.03in /  1016.8hPa WNW 7.5mph /  12.1km/h 15mph /  24.1km/h 71.5% 0.00in /  0mm 32 W/m2
20:24 61.9 °F /  16.6 °C 52.8 °F /  11.6 °C 30.03in /  1016.8hPa West 7.1mph /  11.4km/h 12mph /  19.3km/h 72.4% 0.00in /  0mm 25 W/m2
20:29 61.5 °F /  16.4 °C 53 °F /  11.7 °C 30.03in /  1016.8hPa West 5.9mph /  9.5km/h 10mph /  16.1km/h 73.6% 0.00in /  0mm 18 W/m2
20:34 61.3 °F /  16.3 °C 53.1 °F /  11.7 °C 30.03in /  1016.8hPa WNW 4.2mph /  6.8km/h 10mph /  16.1km/h 74% 0.00in /  0mm 16 W/m2
20:39 61.2 °F /  16.2 °C 53.2 °F /  11.8 °C 30.03in /  1016.8hPa WNW 2mph /  3.2km/h 6mph /  9.7km/h 75% 0.00in /  0mm 12 W/m2
20:44 61.1 °F /  16.2 °C 53.3 °F /  11.8 °C 30.03in /  1016.8hPa WNW 3.7mph /  6km/h 7mph /  11.3km/h 75.4% 0.00in /  0mm 11 W/m2
20:49 60.8 °F /  16 °C 53.2 °F /  11.8 °C 30.03in /  1016.8hPa WNW 3.5mph /  5.6km/h 10mph /  16.1km/h 76% 0.00in /  0mm 7 W/m2
20:54 60.5 °F /  15.8 °C 53 °F /  11.7 °C 30.03in /  1016.8hPa West 5.4mph /  8.7km/h 9mph /  14.5km/h 76% 0.00in /  0mm 5 W/m2
20:59 60.3 °F /  15.7 °C 52.8 °F /  11.6 °C 30.03in /  1016.8hPa WNW 3.3mph /  5.3km/h 9mph /  14.5km/h 76% 0.00in /  0mm 0 W/m2
21:04 60.2 °F /  15.7 °C 53 °F /  11.7 °C 30.03in /  1016.8hPa NW 4.1mph /  6.6km/h 8mph /  12.9km/h 77% 0.00in /  0mm 0 W/m2
21:09 60 °F /  15.6 °C 52.8 °F /  11.6 °C 30.03in /  1016.8hPa West 4mph /  6.4km/h 9mph /  14.5km/h 77% 0.00in /  0mm 0 W/m2
21:14 59.7 °F /  15.4 °C 52.5 °F /  11.4 °C 30.03in /  1016.8hPa West 5.5mph /  8.9km/h 10mph /  16.1km/h 77% 0.00in /  0mm 0 W/m2
21:19 59.5 °F /  15.3 °C 52.5 °F /  11.4 °C 30.04in /  1017.2hPa West 5.6mph /  9km/h 10mph /  16.1km/h 77.6% 0.00in /  0mm 0 W/m2
21:24 59.4 °F /  15.2 °C 52.5 °F /  11.4 °C 30.04in /  1017.2hPa WNW 2.9mph /  4.7km/h 9mph /  14.5km/h 78% 0.00in /  0mm 0 W/m2
21:29 59.3 °F /  15.2 °C 52.4 °F /  11.3 °C 30.04in /  1017.2hPa WNW 2.5mph /  4km/h 7mph /  11.3km/h 78% 0.00in /  0mm 0 W/m2
21:34 59.1 °F /  15.1 °C 52.5 °F /  11.4 °C 30.04in /  1017.2hPa West 3.1mph /  5km/h 7mph /  11.3km/h 78.6% 0.00in /  0mm 0 W/m2
21:39 58.9 °F /  14.9 °C 52.4 °F /  11.3 °C 30.04in /  1017.2hPa WNW 5mph /  8km/h 8mph /  12.9km/h 79% 0.00in /  0mm 0 W/m2
21:44 58.7 °F /  14.8 °C 52.2 °F /  11.2 °C 30.04in /  1017.2hPa WNW 2.3mph /  3.7km/h 7mph /  11.3km/h 79% 0.00in /  0mm 0 W/m2
21:49 58.6 °F /  14.8 °C 52.2 °F /  11.2 °C 30.04in /  1017.2hPa WNW 5.4mph /  8.7km/h 9mph /  14.5km/h 79% 0.00in /  0mm 0 W/m2
21:54 58.6 °F /  14.8 °C 52.2 °F /  11.2 °C 30.04in /  1017.2hPa WNW 3mph /  4.8km/h 9mph /  14.5km/h 79% 0.00in /  0mm 0 W/m2
21:59 58.6 °F /  14.8 °C 52.1 °F /  11.2 °C 30.05in /  1017.5hPa WNW 3.3mph /  5.3km/h 8mph /  12.9km/h 79% 0.00in /  0mm 0 W/m2
22:04 58.5 °F /  14.7 °C 52 °F /  11.1 °C 30.04in /  1017.2hPa WNW 2.5mph /  4km/h 7mph /  11.3km/h 79% 0.00in /  0mm 0 W/m2
22:09 58.3 °F /  14.6 °C 51.8 °F /  11 °C 30.05in /  1017.5hPa WNW 3.7mph /  6km/h 7mph /  11.3km/h 79% 0.00in /  0mm 0 W/m2
22:14 58.1 °F /  14.5 °C 51.7 °F /  10.9 °C 30.05in /  1017.5hPa WNW 3.2mph /  5.1km/h 6mph /  9.7km/h 79.2% 0.00in /  0mm 0 W/m2
22:19 57.8 °F /  14.3 °C 51.4 °F /  10.8 °C 30.05in /  1017.5hPa WNW 3.6mph /  5.8km/h 7mph /  11.3km/h 79.2% 0.00in /  0mm 0 W/m2
22:24 57.7 °F /  14.3 °C 51.3 °F /  10.7 °C 30.05in /  1017.5hPa WNW 2.7mph /  4.3km/h 7mph /  11.3km/h 79% 0.00in /  0mm 0 W/m2
22:29 57.6 °F /  14.2 °C 51.1 °F /  10.6 °C 30.05in /  1017.5hPa WNW 1.9mph /  3.1km/h 4mph /  6.4km/h 79% 0.00in /  0mm 0 W/m2
22:34 57.4 °F /  14.1 °C 50.9 °F /  10.5 °C 30.05in /  1017.5hPa WNW 3.2mph /  5.1km/h 7mph /  11.3km/h 79% 0.00in /  0mm 0 W/m2
22:39 57.4 °F /  14.1 °C 50.9 °F /  10.5 °C 30.05in /  1017.5hPa WNW 3.5mph /  5.6km/h 6mph /  9.7km/h 79% 0.00in /  0mm 0 W/m2
22:44 57.2 °F /  14 °C 50.7 °F /  10.4 °C 30.05in /  1017.5hPa WNW 2.8mph /  4.5km/h 5mph /  8km/h 79% 0.00in /  0mm 0 W/m2
22:49 57 °F /  13.9 °C 50.5 °F /  10.3 °C 30.05in /  1017.5hPa WNW 2.5mph /  4km/h 5mph /  8km/h 79% 0.00in /  0mm 0 W/m2
22:54 56.8 °F /  13.8 °C 50.4 °F /  10.2 °C 30.05in /  1017.5hPa WNW 3.1mph /  5km/h 6mph /  9.7km/h 79% 0.00in /  0mm 0 W/m2
22:59 56.8 °F /  13.8 °C 50 °F /  10 °C 30.05in /  1017.5hPa West 2.6mph /  4.2km/h 7mph /  11.3km/h 78.2% 0.00in /  0mm 0 W/m2
23:04 56.7 °F /  13.7 °C 49.8 °F /  9.9 °C 30.05in /  1017.5hPa West 3.1mph /  5km/h 5mph /  8km/h 78% 0.00in /  0mm 0 W/m2
23:08 56.5 °F /  13.6 °C 49.6 °F /  9.8 °C 30.05in /  1017.5hPa WNW 2.2mph /  3.5km/h 5mph /  8km/h 78% 0.00in /  0mm 0 W/m2
23:14 56.5 °F /  13.6 °C 49.6 °F /  9.8 °C 30.05in /  1017.5hPa WNW 2.1mph /  3.4km/h 6mph /  9.7km/h 78% 0.00in /  0mm 0 W/m2
23:19 56.5 °F /  13.6 °C 49.6 °F /  9.8 °C 30.05in /  1017.5hPa WNW 2.2mph /  3.5km/h 6mph /  9.7km/h 78% 0.00in /  0mm 0 W/m2
23:24 56.5 °F /  13.6 °C 49.5 °F /  9.7 °C 30.04in /  1017.2hPa WNW 1.2mph /  1.9km/h 3mph /  4.8km/h 77.8% 0.00in /  0mm 0 W/m2
23:29 56.5 °F /  13.6 °C 49.3 °F /  9.6 °C 30.05in /  1017.5hPa WNW 2.1mph /  3.4km/h 4mph /  6.4km/h 77% 0.00in /  0mm 0 W/m2
23:34 56.3 °F /  13.5 °C 49.1 °F /  9.5 °C 30.04in /  1017.2hPa WNW 2.4mph /  3.9km/h 3mph /  4.8km/h 77% 0.00in /  0mm 0 W/m2
23:39 56.2 °F /  13.4 °C 49 °F /  9.4 °C 30.04in /  1017.2hPa WNW 2.2mph /  3.5km/h 5mph /  8km/h 77% 0.00in /  0mm 0 W/m2
23:44 56.1 °F /  13.4 °C 49.1 °F /  9.5 °C 30.04in /  1017.2hPa WNW 2.4mph /  3.9km/h 5mph /  8km/h 77.6% 0.00in /  0mm 0 W/m2
23:49 56.1 °F /  13.4 °C 49.3 °F /  9.6 °C 30.05in /  1017.5hPa WNW 2mph /  3.2km/h 4mph /  6.4km/h 78% 0.00in /  0mm 0 W/m2
23:54 56.1 °F /  13.4 °C 49.3 °F /  9.6 °C 30.05in /  1017.5hPa WNW 0.8mph /  1.3km/h 4mph /  6.4km/h 78% 0.00in /  0mm 0 W/m2
23:59 56.1 °F /  13.4 °C 49.3 °F /  9.6 °C 30.05in /  1017.5hPa WNW 2.2mph /  3.5km/h 5mph /  8km/h 78% 0.00in /  0mm 0 W/m2
Bath Spa Weather
Compliments of Weather Underground - 2 mb